This is the latest recevied weather packets stored in our database for station/object EFHKFMI. If no packets are shown the sender has not sent any weather packets the latest 10 day(s).
| Time | Temp. | Humidity | Pressure | Rain* | Wind** | Luminosity | Snow |
|---|---|---|---|---|---|---|---|
| 1777783624 | 7.22° C | 82% | 1006 hPa | 0 mm | - | - | - |
| 1777782424 | 6.67° C | 84% | 1005.9 hPa | 0 mm | - | - | - |
| 1777781224 | 6.67° C | 85% | 1005.6 hPa | 0 mm | - | - | - |
| 1777780024 | 6.11° C | 88% | 1005.3 hPa | 0 mm | - | - | - |
| 1777778824 | 5.56° C | 89% | 1005.7 hPa | 0 mm | - | - | - |
| 1777777624 | 5° C | 90% | 1005.6 hPa | 0 mm | - | - | - |
| 1777776424 | 5.56° C | 87% | 1005.5 hPa | 0 mm | - | - | - |
| 1777775224 | 5.56° C | 86% | 1005.7 hPa | 0 mm | - | - | - |
| 1777774024 | 6.11° C | 85% | 1005.5 hPa | 0 mm | - | - | - |
| 1777772824 | 5.56° C | 85% | 1005.5 hPa | 0 mm | - | - | - |
| 1777771624 | 5.56° C | 84% | 1005.9 hPa | 0 mm | - | - | - |
| 1777770424 | 6.67° C | 82% | 1005.7 hPa | 0 mm | - | - | - |
| 1777769224 | 6.67° C | 80% | 1005.6 hPa | 0 mm | - | - | - |
| 1777768024 | 6.67° C | 80% | 1006 hPa | 0 mm | - | - | - |
| 1777766824 | 6.67° C | 80% | 1006.2 hPa | 0 mm | - | - | - |
| 1777765623 | 7.22° C | 79% | 1006.5 hPa | 0 mm | - | - | - |
| 1777764423 | 7.22° C | 79% | 1006.6 hPa | 0 mm | - | - | - |
| 1777763223 | 7.78° C | 75% | 1006.7 hPa | 0 mm | - | - | - |
| 1777762024 | 7.78° C | 74% | 1006.9 hPa | 0 mm | - | - | - |
| 1777760824 | 7.78° C | 75% | 1007 hPa | 0 mm | - | - | - |
| 1777759623 | 7.78° C | 75% | 1007.3 hPa | 0 mm | - | - | - |
| 1777758423 | 7.78° C | 75% | 1007.5 hPa | 0 mm | - | - | - |
| 1777757223 | 9.44° C | 68% | 1007.6 hPa | 0 mm | - | - | - |
| 1777756023 | 9.44° C | 69% | 1007.8 hPa | 0 mm | - | - | - |
| 1777754823 | 9.44° C | 68% | 1008 hPa | 0 mm | - | - | - |
* Rain latest hour (hover to see other rain measurements)
** Current wind speed in m/s (hover to see current wind gust speed)